createdAt,value
2018-12-11T00:00:49.092Z,2.00
2018-12-11T00:05:55.225Z,2.20
2018-12-11T00:11:00.580Z,2.33
2018-12-11T00:16:05.456Z,1.87
2018-12-11T00:21:09.552Z,2.30
2018-12-11T00:26:14.022Z,2.03
2018-12-11T00:31:18.556Z,2.57
2018-12-11T00:36:52.072Z,2.53
2018-12-11T00:41:56.976Z,2.77
2018-12-11T00:47:01.473Z,2.07
2018-12-11T00:52:06.356Z,2.37
2018-12-11T00:57:10.835Z,2.50
2018-12-11T01:02:15.652Z,2.00
2018-12-11T01:07:20.521Z,2.10
2018-12-11T01:12:25.394Z,2.07
2018-12-11T01:17:30.202Z,2.67
2018-12-11T01:22:34.713Z,2.50
2018-12-11T01:27:38.891Z,2.37
2018-12-11T01:32:43.006Z,2.37
2018-12-11T01:44:05.349Z,2.53
2018-12-11T01:49:10.192Z,2.60
2018-12-11T01:54:15.057Z,3.50
2018-12-11T01:59:20.227Z,3.57
2018-12-11T02:04:24.703Z,2.50
2018-12-11T02:09:29.196Z,2.60
2018-12-11T02:14:34.191Z,3.40
2018-12-11T02:19:39.071Z,2.70
2018-12-11T02:24:43.932Z,3.17
2018-12-11T02:29:49.100Z,2.97
2018-12-11T02:34:53.560Z,3.10
2018-12-11T02:39:58.461Z,3.37
2018-12-11T02:45:15.150Z,3.27
2018-12-11T02:50:19.506Z,2.43
2018-12-11T02:55:24.375Z,2.53
2018-12-11T03:00:30.938Z,3.00
2018-12-11T03:05:36.038Z,2.97
2018-12-11T03:10:40.167Z,3.20
2018-12-11T03:15:44.881Z,2.83
2018-12-11T03:20:48.966Z,2.97
2018-12-11T03:25:53.450Z,3.23
2018-12-11T03:30:59.226Z,3.13
2018-12-11T03:36:03.329Z,2.23
2018-12-11T03:41:08.188Z,2.47
2018-12-11T03:46:38.949Z,2.33
2018-12-11T03:51:56.851Z,2.77
2018-12-11T03:57:00.950Z,2.53
2018-12-11T04:02:06.017Z,3.90
2018-12-11T04:07:10.846Z,3.67
2018-12-11T04:12:15.608Z,2.43
2018-12-11T04:17:20.471Z,2.47
2018-12-11T04:22:24.970Z,2.50
2018-12-11T04:27:29.830Z,2.50
2018-12-11T04:32:33.900Z,2.67
2018-12-11T04:37:38.782Z,2.17
2018-12-11T04:42:43.278Z,2.47
2018-12-11T05:06:09.878Z,2.10
2018-12-11T05:11:14.770Z,2.00
2018-12-11T05:16:19.654Z,3.27
2018-12-11T05:21:24.148Z,2.50
2018-12-11T05:26:28.682Z,2.43
2018-12-11T05:31:41.109Z,2.50
2018-12-11T05:36:45.581Z,2.23
2018-12-11T05:41:50.459Z,1.60
2018-12-11T05:46:54.937Z,2.20
2018-12-11T05:52:00.013Z,1.73
2018-12-11T05:57:05.261Z,1.65
2018-12-11T06:33:40.865Z,1.63
2018-12-11T06:38:45.395Z,1.67
2018-12-11T06:43:49.988Z,1.70
2018-12-11T06:48:54.112Z,1.53
2018-12-11T06:53:58.529Z,1.47
2018-12-11T06:59:03.455Z,1.67
2018-12-11T07:04:07.848Z,1.60
2018-12-11T07:09:12.769Z,1.75
2018-12-11T07:14:16.865Z,1.50
2018-12-11T07:19:21.362Z,1.67
2018-12-11T07:24:26.038Z,1.43
2018-12-11T07:29:30.511Z,1.57
2018-12-11T07:34:35.515Z,1.40
2018-12-11T07:39:40.029Z,1.10
2018-12-11T07:44:45.141Z,1.30
2018-12-11T07:49:50.199Z,0.93
2018-12-11T07:54:55.343Z,1.00
2018-12-11T08:00:00.455Z,1.13
2018-12-11T08:05:05.427Z,0.80
2018-12-11T08:10:10.566Z,0.90
2018-12-11T08:15:15.306Z,1.10
2018-12-11T08:20:20.413Z,0.90
2018-12-11T08:25:25.001Z,1.50
2018-12-11T08:30:30.045Z,1.20
2018-12-11T08:35:42.495Z,1.30
2018-12-11T08:40:46.953Z,1.37
2018-12-11T08:45:51.313Z,1.30
2018-12-11T08:50:56.187Z,1.67
2018-12-11T08:56:01.077Z,1.17
2018-12-11T09:01:06.058Z,1.33
2018-12-11T09:06:10.764Z,1.20
2018-12-11T09:11:15.665Z,1.27
2018-12-11T09:16:20.029Z,1.35
2018-12-11T09:21:24.766Z,1.10
2018-12-11T09:26:29.645Z,1.27
2018-12-11T09:31:34.075Z,1.40
2018-12-11T10:20:17.727Z,0.90
2018-12-11T10:25:22.478Z,0.75
2018-12-11T10:30:32.502Z,0.90
2018-12-11T10:35:36.993Z,0.90
2018-12-11T10:40:42.051Z,0.80
2018-12-11T10:45:47.120Z,0.90
2018-12-11T10:50:51.627Z,1.00
2018-12-11T10:55:56.399Z,0.90
2018-12-11T11:01:06.766Z,0.90
2018-12-11T11:06:11.821Z,0.95
2018-12-11T11:11:16.716Z,0.97
2018-12-11T11:16:21.192Z,0.93
2018-12-11T11:21:26.259Z,1.00
2018-12-11T11:26:31.216Z,0.90
2018-12-11T11:31:35.410Z,1.00
2018-12-11T11:36:39.534Z,0.97
2018-12-11T11:41:44.312Z,1.10
2018-12-11T11:46:48.634Z,1.00
2018-12-11T11:51:53.491Z,0.93
2018-12-11T11:56:58.369Z,1.13
2018-12-11T12:02:03.203Z,1.10
2018-12-11T12:07:08.324Z,1.13
2018-12-11T12:12:12.985Z,1.00
2018-12-11T12:17:17.487Z,1.03
2018-12-11T13:19:30.086Z,1.33
2018-12-11T13:24:34.198Z,1.30
2018-12-11T13:29:38.750Z,1.80
2018-12-11T13:34:42.861Z,1.47
2018-12-11T13:39:47.217Z,1.33
2018-12-11T13:44:52.033Z,1.60
2018-12-11T13:49:56.125Z,1.70
2018-12-11T13:55:00.206Z,1.70
2018-12-11T14:00:05.738Z,1.73
2018-12-11T14:05:10.931Z,1.80
2018-12-11T14:10:15.714Z,1.57
2018-12-11T14:15:20.797Z,2.00
2018-12-11T14:20:55.405Z,1.80
2018-12-11T14:25:59.881Z,1.80
2018-12-11T14:31:04.472Z,2.00
2018-12-11T14:36:09.192Z,2.10
2018-12-11T14:41:13.926Z,1.93
2018-12-11T14:46:19.067Z,2.55
2018-12-11T14:51:24.065Z,1.83
2018-12-11T14:56:28.529Z,2.10
2018-12-11T15:01:33.424Z,2.00
2018-12-11T15:06:38.116Z,2.00
2018-12-11T15:11:42.900Z,1.93
2018-12-11T15:16:47.378Z,2.20
2018-12-11T15:21:58.394Z,1.67
2018-12-11T15:27:02.872Z,1.90
2018-12-11T15:32:07.370Z,1.73
2018-12-11T15:37:11.466Z,1.90
2018-12-11T15:42:16.020Z,2.00
2018-12-11T15:47:21.164Z,1.90
2018-12-11T15:52:25.898Z,1.80
2018-12-11T15:57:30.370Z,1.50
2018-12-11T16:02:34.496Z,1.90
2018-12-11T16:07:39.363Z,1.60
2018-12-11T16:12:43.811Z,1.27
2018-12-11T16:17:48.264Z,1.57
2018-12-11T16:23:18.641Z,1.60
2018-12-11T16:28:23.795Z,1.40
2018-12-11T16:33:27.868Z,1.40
2018-12-11T16:38:31.945Z,1.37
2018-12-11T16:43:36.404Z,1.57
2018-12-11T16:48:41.503Z,1.77
2018-12-11T16:53:45.630Z,1.60
2018-12-11T16:58:51.931Z,1.87
2018-12-11T17:03:56.811Z,2.10
2018-12-11T17:09:00.856Z,2.30
2018-12-11T17:14:05.706Z,1.93
2018-12-11T17:19:10.514Z,1.82
2018-12-11T17:24:14.925Z,1.70
2018-12-11T17:29:24.198Z,1.80
2018-12-11T17:34:25.973Z,1.73
2018-12-11T17:39:30.615Z,2.17
2018-12-11T17:44:34.794Z,1.57
2018-12-11T17:49:39.431Z,1.40
2018-12-11T17:54:44.494Z,1.47
2018-12-11T17:59:48.623Z,1.60
2018-12-11T18:04:52.729Z,2.80
2018-12-11T18:09:57.545Z,2.03
2018-12-11T18:15:01.744Z,1.83
2018-12-11T18:20:07.821Z,1.73
2018-12-11T18:56:05.712Z,1.87
2018-12-11T19:01:10.550Z,1.80
2018-12-11T19:06:14.684Z,1.47
2018-12-11T19:11:18.871Z,1.63
2018-12-11T19:16:25.544Z,1.90
2018-12-11T19:21:29.675Z,1.57
2018-12-11T19:26:34.534Z,1.87
2018-12-11T19:31:39.128Z,1.50
2018-12-11T19:36:44.068Z,1.50
2018-12-11T19:41:50.002Z,1.70
2018-12-11T19:46:54.214Z,1.83
2018-12-11T19:51:58.652Z,1.60
2018-12-11T19:57:24.120Z,1.90
2018-12-11T20:02:29.064Z,1.70
2018-12-11T20:07:33.536Z,1.73
2018-12-11T20:12:40.110Z,1.60
2018-12-11T20:17:45.063Z,1.40
2018-12-11T20:22:49.685Z,2.87
2018-12-11T20:27:54.342Z,5.30
2018-12-11T20:32:58.617Z,1.53
2018-12-11T20:38:03.529Z,1.80
2018-12-11T20:43:08.330Z,1.50
2018-12-11T20:48:12.790Z,1.20
2018-12-11T20:53:17.392Z,1.50
2018-12-11T21:29:58.360Z,1.70
2018-12-11T21:35:02.943Z,1.53
2018-12-11T21:40:07.691Z,1.73
2018-12-11T21:45:12.864Z,1.37
2018-12-11T21:50:17.430Z,1.57
2018-12-11T21:55:22.702Z,1.53
2018-12-11T22:00:26.836Z,1.70
2018-12-11T22:05:31.396Z,1.53
2018-12-11T22:10:36.533Z,1.43
2018-12-11T22:15:40.721Z,1.60
2018-12-11T22:20:45.283Z,1.73
2018-12-11T22:25:49.777Z,1.60
2018-12-11T22:31:10.214Z,1.50
2018-12-11T22:36:14.569Z,1.40
2018-12-11T22:41:18.926Z,1.67
2018-12-11T22:46:23.811Z,1.70
2018-12-11T22:51:29.272Z,1.50
2018-12-11T22:56:33.464Z,1.50
2018-12-11T23:01:37.991Z,1.60
2018-12-11T23:06:42.408Z,1.73
2018-12-11T23:11:46.479Z,1.80
2018-12-11T23:16:51.013Z,2.00
2018-12-11T23:21:55.415Z,2.20
2018-12-11T23:26:59.922Z,1.77
2018-12-11T23:32:17.509Z,1.80
2018-12-11T23:37:22.033Z,1.77
2018-12-11T23:42:26.589Z,1.70
2018-12-11T23:47:31.075Z,1.60
2018-12-11T23:52:35.215Z,1.80
2018-12-11T23:57:39.608Z,1.40
